createdAt,value
2022-11-30T00:01:35.494Z,1.20
2022-11-30T00:04:03.373Z,3.80
2022-11-30T00:06:31.431Z,0.08
2022-11-30T00:09:00.842Z,2.10
2022-11-30T00:11:29.806Z,0.73
2022-11-30T00:14:00.283Z,0.03
2022-11-30T00:16:28.379Z,0.10
2022-11-30T00:18:56.726Z,0.15
2022-11-30T00:21:26.140Z,0.20
2022-11-30T00:23:54.274Z,0.20
2022-11-30T00:26:23.456Z,0.10
2022-11-30T00:28:51.728Z,0.17
2022-11-30T00:31:21.041Z,0.10
2022-11-30T00:33:49.065Z,0.20
2022-11-30T00:36:19.004Z,0.40
2022-11-30T00:38:47.750Z,0.20
2022-11-30T00:41:16.318Z,0.10
2022-11-30T00:43:45.940Z,0.20
2022-11-30T00:46:13.883Z,0.10
2022-11-30T00:48:42.496Z,0.10
2022-11-30T00:51:12.168Z,0.03
2022-11-30T00:53:40.999Z,0.25
2022-11-30T00:56:09.968Z,1.27
2022-11-30T00:58:37.897Z,0.00
2022-11-30T01:01:07.842Z,0.30
2022-11-30T01:03:37.340Z,0.10
2022-11-30T01:06:05.575Z,0.00
2022-11-30T01:08:33.925Z,2.90
2022-11-30T01:11:07.734Z,0.10
2022-11-30T01:13:35.606Z,0.75
2022-11-30T01:16:09.429Z,1.75
2022-11-30T01:18:39.419Z,0.35
2022-11-30T01:21:08.681Z,0.40
2022-11-30T01:23:37.033Z,0.63
2022-11-30T01:26:05.276Z,0.10
2022-11-30T01:28:33.408Z,0.85
2022-11-30T01:31:03.647Z,0.20
2022-11-30T01:33:31.509Z,0.10
2022-11-30T01:36:02.558Z,0.10
2022-11-30T01:38:33.758Z,0.90
2022-11-30T01:41:01.746Z,0.35
2022-11-30T01:43:42.612Z,0.52
2022-11-30T01:46:25.542Z,0.63
2022-11-30T01:49:00.633Z,0.10
2022-11-30T01:51:37.016Z,0.10
2022-11-30T01:54:06.946Z,2.10
2022-11-30T01:56:35.055Z,3.20
2022-11-30T01:59:03.158Z,0.30
2022-11-30T02:01:31.492Z,0.20
2022-11-30T02:04:04.603Z,0.00
2022-11-30T02:06:34.243Z,0.10
2022-11-30T02:09:02.482Z,0.20
2022-11-30T02:11:30.559Z,0.10
2022-11-30T02:14:09.399Z,0.13
2022-11-30T02:16:47.661Z,0.35
2022-11-30T02:19:43.329Z,0.43
2022-11-30T02:22:24.930Z,0.10
2022-11-30T02:25:06.552Z,0.10
2022-11-30T02:27:50.782Z,1.35
2022-11-30T02:30:21.387Z,0.28
2022-11-30T02:32:55.400Z,0.22
2022-11-30T02:35:29.463Z,0.65
2022-11-30T02:37:59.896Z,0.15
2022-11-30T02:42:58.585Z,0.90
2022-11-30T02:45:35.515Z,0.10
2022-11-30T02:48:10.384Z,0.10
2022-11-30T02:50:42.060Z,0.20
2022-11-30T02:53:11.373Z,0.10
2022-11-30T02:55:39.208Z,0.10
2022-11-30T02:58:07.269Z,0.38
2022-11-30T03:00:36.556Z,1.17
2022-11-30T03:03:04.492Z,0.25
2022-11-30T03:05:32.362Z,0.10
2022-11-30T03:08:00.216Z,0.10
2022-11-30T03:10:28.174Z,0.10
2022-11-30T03:12:58.867Z,0.10
2022-11-30T03:15:27.037Z,0.57
2022-11-30T03:17:56.203Z,0.10
2022-11-30T03:20:24.059Z,0.80
2022-11-30T03:22:51.851Z,0.10
2022-11-30T03:25:19.721Z,0.25
2022-11-30T03:27:47.526Z,0.10
2022-11-30T03:30:15.757Z,0.00
2022-11-30T03:32:43.952Z,0.25
2022-11-30T03:35:13.268Z,0.25
2022-11-30T03:37:41.135Z,0.10
2022-11-30T03:40:10.105Z,0.28
2022-11-30T03:42:38.232Z,0.00
2022-11-30T03:45:07.481Z,0.68
2022-11-30T03:47:35.273Z,0.10
2022-11-30T03:50:03.091Z,0.00
2022-11-30T03:52:32.278Z,0.10
2022-11-30T03:55:00.314Z,0.10
2022-11-30T03:57:28.178Z,0.08
2022-11-30T03:59:56.226Z,0.00
2022-11-30T04:02:24.131Z,0.15
2022-11-30T04:04:51.991Z,0.05
2022-11-30T04:07:19.929Z,0.10
2022-11-30T04:09:49.207Z,0.10
2022-11-30T04:12:17.045Z,0.10
2022-11-30T04:14:45.155Z,0.80
2022-11-30T04:17:13.400Z,0.90
2022-11-30T04:19:41.212Z,0.10
2022-11-30T04:22:09.037Z,0.10
2022-11-30T04:24:36.877Z,0.10
2022-11-30T04:27:06.184Z,0.40
2022-11-30T04:29:34.196Z,0.47
2022-11-30T04:32:02.169Z,0.10
2022-11-30T04:34:31.563Z,0.10
2022-11-30T04:37:00.537Z,0.10
2022-11-30T04:39:28.627Z,0.10
2022-11-30T04:41:56.628Z,0.10
2022-11-30T04:44:25.872Z,0.20
2022-11-30T04:46:53.845Z,0.20
2022-11-30T04:49:21.690Z,0.35
2022-11-30T04:51:49.563Z,2.75
2022-11-30T04:54:17.405Z,0.10
2022-11-30T04:56:45.299Z,0.68
2022-11-30T04:59:13.130Z,2.67
2022-11-30T05:01:42.495Z,0.10
2022-11-30T05:04:10.346Z,0.10
2022-11-30T05:06:38.212Z,0.22
2022-11-30T05:09:06.404Z,0.00
2022-11-30T05:11:34.362Z,0.10
2022-11-30T05:14:02.371Z,0.10
2022-11-30T05:16:30.702Z,0.00
2022-11-30T05:18:59.940Z,0.00
2022-11-30T05:21:27.821Z,0.10
2022-11-30T05:23:55.668Z,1.75
2022-11-30T05:26:23.774Z,1.95
2022-11-30T05:28:51.821Z,0.10
2022-11-30T05:31:19.745Z,0.20
2022-11-30T05:33:51.583Z,1.65
2022-11-30T05:36:21.377Z,0.00
2022-11-30T05:38:49.374Z,0.10
2022-11-30T05:41:17.319Z,0.65
2022-11-30T05:43:45.370Z,0.10
2022-11-30T05:46:13.188Z,0.00
2022-11-30T05:48:41.013Z,0.00
2022-11-30T05:51:10.823Z,1.65
2022-11-30T05:53:40.488Z,0.10
2022-11-30T05:56:10.600Z,0.10
2022-11-30T05:58:38.685Z,0.10
2022-11-30T06:01:07.180Z,0.10
2022-11-30T06:03:36.831Z,0.10
2022-11-30T06:06:04.667Z,0.10
2022-11-30T06:08:32.687Z,0.55
2022-11-30T06:11:03.075Z,0.10
2022-11-30T06:16:01.035Z,0.32
2022-11-30T06:18:29.448Z,0.10
2022-11-30T06:21:01.659Z,0.10
2022-11-30T06:23:29.663Z,0.10
2022-11-30T06:25:57.546Z,0.10
2022-11-30T06:28:27.113Z,7.53
2022-11-30T06:30:59.583Z,0.10
2022-11-30T06:33:27.797Z,0.10
2022-11-30T06:35:55.605Z,0.10
2022-11-30T06:38:24.289Z,0.55
2022-11-30T06:40:52.087Z,0.10
2022-11-30T06:43:20.042Z,0.73
2022-11-30T06:45:49.349Z,0.93
2022-11-30T06:48:17.199Z,0.10
2022-11-30T06:50:49.952Z,0.08
2022-11-30T06:53:18.103Z,0.10
2022-11-30T06:55:45.985Z,2.08
2022-11-30T06:58:13.818Z,0.00
2022-11-30T07:00:42.823Z,0.10
2022-11-30T07:03:12.919Z,0.10
2022-11-30T07:05:44.196Z,0.10
2022-11-30T07:08:12.217Z,1.33
2022-11-30T07:10:41.690Z,0.90
2022-11-30T07:13:12.125Z,0.10
2022-11-30T07:18:08.138Z,0.10
2022-11-30T07:20:37.891Z,0.10
2022-11-30T07:23:19.850Z,0.10
2022-11-30T07:26:05.451Z,0.68
2022-11-30T07:28:33.607Z,0.00
2022-11-30T07:31:01.535Z,0.10
2022-11-30T07:33:29.875Z,0.10
2022-11-30T07:35:59.432Z,0.10
2022-11-30T07:38:27.458Z,1.07
2022-11-30T07:40:55.295Z,0.10
2022-11-30T07:43:23.208Z,0.10
2022-11-30T07:45:54.747Z,0.10
2022-11-30T07:48:23.402Z,0.10
2022-11-30T07:51:04.935Z,0.10
2022-11-30T07:54:01.358Z,0.10
2022-11-30T07:56:29.649Z,0.08
2022-11-30T07:58:59.551Z,0.57
2022-11-30T08:01:29.345Z,0.20
2022-11-30T08:03:58.302Z,1.02
2022-11-30T08:06:27.885Z,0.10
2022-11-30T08:08:58.941Z,0.73
2022-11-30T08:11:31.120Z,0.65
2022-11-30T08:13:58.947Z,0.10
2022-11-30T08:16:28.581Z,0.10
2022-11-30T08:18:57.326Z,0.15
2022-11-30T08:21:25.614Z,0.10
2022-11-30T08:23:56.075Z,0.10
2022-11-30T08:26:25.997Z,0.10
2022-11-30T08:28:56.172Z,0.10
2022-11-30T08:31:26.009Z,0.10
2022-11-30T08:33:57.600Z,1.08
2022-11-30T08:36:26.727Z,1.55
2022-11-30T08:38:55.049Z,0.08
2022-11-30T08:41:23.646Z,0.10
2022-11-30T08:43:53.141Z,0.10
2022-11-30T08:49:21.426Z,0.10
2022-11-30T08:54:42.420Z,0.10
2022-11-30T08:57:10.428Z,0.10
2022-11-30T08:59:38.426Z,0.10
2022-11-30T09:02:07.773Z,0.30
2022-11-30T09:04:35.773Z,0.95
2022-11-30T09:07:04.279Z,0.65
2022-11-30T09:09:32.653Z,0.32
2022-11-30T09:12:00.565Z,0.63
2022-11-30T09:14:29.589Z,0.32
2022-11-30T09:16:57.427Z,0.10
2022-11-30T09:19:27.262Z,0.65
2022-11-30T09:21:55.155Z,0.10
2022-11-30T09:24:23.014Z,0.20
2022-11-30T09:26:51.236Z,1.55
2022-11-30T09:29:19.127Z,0.10
2022-11-30T09:31:46.930Z,0.10
2022-11-30T09:34:14.816Z,0.10
2022-11-30T09:36:44.150Z,0.10
2022-11-30T09:39:12.895Z,0.10
2022-11-30T09:42:06.008Z,0.10
2022-11-30T09:44:45.933Z,1.65
2022-11-30T09:47:33.586Z,0.10
2022-11-30T09:50:04.822Z,0.10
2022-11-30T09:52:38.482Z,0.10
2022-11-30T09:55:10.787Z,0.13
2022-11-30T09:57:47.011Z,0.10
2022-11-30T10:00:17.807Z,2.47
2022-11-30T10:02:46.843Z,0.00
2022-11-30T10:05:16.625Z,0.10
2022-11-30T10:08:06.044Z,0.10
2022-11-30T10:10:40.281Z,0.20
2022-11-30T10:13:27.869Z,0.10
2022-11-30T10:16:08.521Z,0.15
2022-11-30T10:18:48.047Z,0.10
2022-11-30T10:21:27.933Z,0.93
2022-11-30T10:24:11.788Z,0.25
2022-11-30T10:26:43.458Z,0.47
2022-11-30T10:29:19.197Z,0.10
2022-11-30T10:31:49.685Z,0.63
2022-11-30T10:36:54.367Z,0.10
2022-11-30T10:39:29.636Z,0.10
2022-11-30T10:42:05.218Z,0.10
2022-11-30T10:44:39.538Z,0.30
2022-11-30T10:47:14.807Z,0.10
2022-11-30T10:49:49.356Z,0.65
2022-11-30T10:52:24.049Z,0.20
2022-11-30T10:55:02.257Z,0.10
2022-11-30T10:57:34.152Z,0.20
2022-11-30T11:00:06.464Z,0.17
2022-11-30T11:02:41.449Z,0.22
2022-11-30T11:05:21.712Z,0.30
2022-11-30T11:07:52.766Z,0.10
2022-11-30T11:10:28.603Z,0.10
2022-11-30T11:12:57.140Z,0.20
2022-11-30T11:15:26.822Z,0.10
2022-11-30T11:18:12.750Z,0.35
2022-11-30T11:20:42.636Z,0.10
2022-11-30T11:23:22.764Z,0.17
2022-11-30T11:25:54.151Z,0.10
2022-11-30T11:28:24.487Z,0.08
2022-11-30T11:30:55.348Z,0.10
2022-11-30T11:33:25.343Z,0.73
2022-11-30T11:35:54.544Z,0.10
2022-11-30T11:38:28.529Z,0.10
2022-11-30T11:41:00.849Z,0.10
2022-11-30T11:43:30.649Z,0.10
2022-11-30T11:46:01.919Z,0.10
2022-11-30T11:48:34.779Z,0.10
2022-11-30T11:51:07.060Z,0.20
2022-11-30T11:53:51.541Z,0.10
2022-11-30T11:56:27.054Z,0.00
2022-11-30T11:58:59.861Z,0.35
2022-11-30T12:01:50.368Z,0.00
2022-11-30T12:04:37.388Z,0.10
2022-11-30T12:07:18.051Z,0.10
2022-11-30T12:09:59.263Z,0.00
2022-11-30T12:12:33.687Z,0.10
2022-11-30T12:15:12.100Z,0.10
2022-11-30T12:17:52.032Z,1.00
2022-11-30T12:20:26.910Z,0.65
2022-11-30T12:23:12.655Z,0.10
2022-11-30T12:25:48.803Z,2.47
2022-11-30T12:28:25.407Z,0.10
2022-11-30T12:31:12.060Z,1.30
2022-11-30T12:34:00.192Z,1.30
2022-11-30T12:36:38.127Z,0.00
2022-11-30T12:39:10.119Z,0.10
2022-11-30T12:41:50.623Z,0.10
2022-11-30T12:47:04.401Z,0.00
2022-11-30T12:49:44.852Z,0.10
2022-11-30T12:52:29.823Z,0.63
2022-11-30T12:55:05.031Z,1.05
2022-11-30T12:57:39.497Z,0.20
2022-11-30T13:00:17.149Z,0.20
2022-11-30T13:03:03.796Z,0.15
2022-11-30T13:05:36.553Z,0.03
2022-11-30T13:08:11.927Z,0.10
2022-11-30T13:10:44.178Z,0.30
2022-11-30T13:13:15.526Z,0.35
2022-11-30T13:15:46.393Z,0.10
2022-11-30T13:18:19.225Z,0.10
2022-11-30T13:20:52.922Z,0.60
2022-11-30T13:23:31.509Z,0.10
2022-11-30T13:26:08.420Z,0.10
2022-11-30T13:28:56.626Z,0.13
2022-11-30T13:31:36.207Z,0.10
2022-11-30T13:34:24.529Z,0.20
2022-11-30T13:37:07.804Z,0.10
2022-11-30T13:39:49.772Z,0.43
2022-11-30T13:42:34.946Z,0.00
2022-11-30T13:45:39.541Z,0.10
2022-11-30T13:48:32.883Z,9.07
2022-11-30T13:51:06.923Z,8.40
2022-11-30T13:53:40.541Z,9.25
2022-11-30T13:56:33.633Z,9.95
2022-11-30T13:59:45.550Z,10.10
2022-11-30T14:02:59.095Z,8.82
2022-11-30T14:05:44.205Z,8.80
2022-11-30T14:08:32.636Z,8.90
2022-11-30T14:11:38.275Z,7.65
2022-11-30T14:14:47.039Z,8.13
2022-11-30T14:17:26.922Z,8.25
2022-11-30T14:20:03.487Z,7.93
2022-11-30T14:22:41.688Z,7.20
2022-11-30T14:25:17.929Z,7.88
2022-11-30T14:27:56.567Z,8.40
2022-11-30T14:30:33.630Z,7.50
2022-11-30T14:33:19.378Z,7.70
2022-11-30T14:35:57.981Z,7.63
2022-11-30T14:38:32.762Z,6.93
2022-11-30T14:41:05.633Z,6.90
2022-11-30T14:43:38.542Z,7.20
2022-11-30T14:46:18.850Z,8.52
2022-11-30T14:49:05.258Z,9.45
2022-11-30T14:51:38.815Z,8.45
2022-11-30T14:54:23.616Z,8.18
2022-11-30T14:57:03.983Z,8.55
2022-11-30T14:59:47.380Z,8.38
2022-11-30T15:02:24.886Z,8.43
2022-11-30T15:04:59.735Z,8.77
2022-11-30T15:07:32.774Z,9.05
2022-11-30T15:10:12.361Z,9.82
2022-11-30T15:12:45.956Z,11.25
2022-11-30T15:15:21.257Z,10.20
2022-11-30T15:17:56.206Z,9.43
2022-11-30T15:20:32.455Z,9.00
2022-11-30T15:23:05.350Z,9.30
2022-11-30T15:25:42.976Z,9.40
2022-11-30T15:28:19.898Z,9.32
2022-11-30T15:30:58.558Z,8.98
2022-11-30T15:33:38.096Z,8.60
2022-11-30T15:36:31.356Z,8.67
2022-11-30T15:39:06.653Z,13.90
2022-11-30T15:41:40.872Z,9.73
2022-11-30T15:44:26.242Z,9.38
2022-11-30T15:47:01.414Z,7.32
2022-11-30T15:49:36.273Z,8.20
2022-11-30T15:52:18.194Z,9.40
2022-11-30T15:54:54.008Z,10.48
2022-11-30T15:57:59.355Z,10.77
2022-11-30T16:00:33.281Z,11.65
2022-11-30T16:03:10.618Z,16.17
2022-11-30T16:05:57.105Z,14.07
2022-11-30T16:08:30.378Z,13.63
2022-11-30T16:11:08.020Z,13.57
2022-11-30T16:13:42.777Z,13.02
2022-11-30T16:16:23.988Z,12.95
2022-11-30T16:18:56.911Z,12.60
2022-11-30T16:21:29.850Z,14.27
2022-11-30T16:24:02.688Z,13.07
2022-11-30T16:26:50.623Z,13.85
2022-11-30T16:29:25.809Z,16.50
2022-11-30T16:31:58.790Z,15.63
2022-11-30T16:34:31.669Z,14.60
2022-11-30T16:37:04.691Z,15.65
2022-11-30T16:39:37.951Z,15.75
2022-11-30T16:42:12.490Z,14.40
2022-11-30T16:44:46.729Z,15.27
2022-11-30T16:47:19.793Z,14.95
2022-11-30T16:49:52.630Z,13.90
2022-11-30T16:52:25.447Z,14.63
2022-11-30T16:54:58.232Z,13.32
2022-11-30T16:57:31.052Z,14.60
2022-11-30T17:00:06.151Z,14.00
2022-11-30T17:02:43.042Z,12.48
2022-11-30T17:05:16.508Z,14.13
2022-11-30T17:07:49.456Z,15.25
2022-11-30T17:10:23.052Z,12.93
2022-11-30T17:12:55.912Z,16.27
2022-11-30T17:15:30.243Z,14.25
2022-11-30T17:18:03.119Z,12.60
2022-11-30T17:20:37.470Z,11.85
2022-11-30T17:23:10.355Z,12.45
2022-11-30T17:25:43.204Z,14.50
2022-11-30T17:28:16.088Z,13.68
2022-11-30T17:30:50.338Z,12.55
2022-11-30T17:33:23.235Z,13.48
2022-11-30T17:35:58.618Z,12.32
2022-11-30T17:38:31.449Z,13.40
2022-11-30T17:41:05.266Z,13.10
2022-11-30T17:43:38.222Z,12.98
2022-11-30T17:46:15.617Z,13.38
2022-11-30T17:48:49.348Z,13.15
2022-11-30T17:51:22.269Z,12.65
2022-11-30T17:53:55.196Z,12.88
2022-11-30T17:56:28.113Z,13.02
2022-11-30T17:59:01.023Z,13.55
2022-11-30T18:01:35.603Z,13.55
2022-11-30T18:04:09.204Z,12.88
2022-11-30T18:06:42.016Z,12.63
2022-11-30T18:09:14.832Z,13.32
2022-11-30T18:11:48.000Z,12.45
2022-11-30T18:14:24.005Z,13.27
2022-11-30T18:17:06.908Z,13.63
2022-11-30T18:19:39.829Z,15.45
2022-11-30T18:22:12.668Z,12.10
2022-11-30T18:24:45.889Z,13.68
2022-11-30T18:27:18.904Z,13.90
2022-11-30T18:29:52.231Z,12.77
2022-11-30T18:32:26.408Z,13.60
2022-11-30T18:34:59.418Z,12.98
2022-11-30T18:37:34.472Z,12.38
2022-11-30T18:40:08.619Z,13.80
2022-11-30T18:42:41.457Z,14.18
2022-11-30T18:45:14.256Z,13.57
2022-11-30T18:47:48.563Z,15.13
2022-11-30T18:50:21.418Z,14.45
2022-11-30T18:52:54.774Z,15.30
2022-11-30T18:55:27.800Z,14.38
2022-11-30T18:58:01.710Z,14.07
2022-11-30T19:00:34.539Z,14.55
2022-11-30T19:03:08.798Z,13.43
2022-11-30T19:05:41.685Z,15.73
2022-11-30T19:08:15.542Z,15.77
2022-11-30T19:10:48.546Z,16.10
2022-11-30T19:13:21.440Z,14.90
2022-11-30T19:15:54.284Z,15.43
2022-11-30T19:18:28.583Z,15.77
2022-11-30T19:21:01.402Z,15.40
2022-11-30T19:23:34.252Z,14.95
2022-11-30T19:26:08.519Z,17.75
2022-11-30T19:28:43.668Z,15.30
2022-11-30T19:31:18.476Z,16.40
2022-11-30T19:33:55.385Z,16.50
2022-11-30T19:36:29.658Z,16.45
2022-11-30T19:39:02.618Z,17.10
2022-11-30T19:41:35.528Z,15.68
2022-11-30T19:44:10.481Z,17.27
2022-11-30T19:46:43.437Z,14.93
2022-11-30T19:49:17.844Z,15.38
2022-11-30T19:51:50.787Z,19.13
2022-11-30T19:54:23.729Z,21.10
2022-11-30T19:56:58.094Z,17.70
2022-11-30T19:59:30.966Z,16.52
2022-11-30T20:02:03.967Z,14.98
2022-11-30T20:04:38.435Z,16.45
2022-11-30T20:07:11.283Z,17.13
2022-11-30T20:09:44.256Z,14.88
2022-11-30T20:12:17.288Z,18.02
2022-11-30T20:14:51.037Z,18.38
2022-11-30T20:17:24.007Z,16.10
2022-11-30T20:19:58.308Z,17.25
2022-11-30T20:22:31.424Z,16.33
2022-11-30T20:25:04.502Z,16.50
2022-11-30T20:27:37.444Z,16.65
2022-11-30T20:30:11.017Z,18.25
2022-11-30T20:32:43.966Z,15.93
2022-11-30T20:35:18.319Z,16.23
2022-11-30T20:37:51.183Z,16.73
2022-11-30T20:40:24.060Z,17.27
2022-11-30T20:42:56.947Z,17.45
2022-11-30T20:45:32.348Z,17.20
2022-11-30T20:48:05.283Z,17.17
2022-11-30T20:50:39.818Z,16.98
2022-11-30T20:53:12.714Z,16.65
2022-11-30T20:55:45.818Z,16.48
2022-11-30T20:58:18.767Z,16.63
2022-11-30T21:00:51.651Z,17.60
2022-11-30T21:03:24.553Z,16.88
2022-11-30T21:05:58.717Z,17.65
2022-11-30T21:08:32.024Z,18.70
2022-11-30T21:11:06.314Z,16.55
2022-11-30T21:13:40.078Z,17.30
2022-11-30T21:16:13.514Z,17.83
2022-11-30T21:18:47.345Z,16.83
2022-11-30T21:21:24.095Z,15.60
2022-11-30T21:23:59.947Z,16.58
2022-11-30T21:26:34.942Z,16.33
2022-11-30T21:29:11.198Z,17.88
2022-11-30T21:31:44.900Z,16.88
2022-11-30T21:34:18.388Z,17.50
2022-11-30T21:36:53.434Z,16.67
2022-11-30T21:39:26.557Z,17.52
2022-11-30T21:41:59.497Z,16.70
2022-11-30T21:44:32.340Z,15.82
2022-11-30T21:47:05.287Z,17.50
2022-11-30T21:49:38.085Z,16.50
2022-11-30T21:52:12.716Z,16.63
2022-11-30T21:54:45.633Z,15.65
2022-11-30T21:57:18.595Z,15.15
2022-11-30T21:59:51.481Z,14.85
2022-11-30T22:02:24.453Z,16.55
2022-11-30T22:04:57.327Z,15.23
2022-11-30T22:07:39.147Z,15.85
2022-11-30T22:10:32.844Z,15.70
2022-11-30T22:13:05.699Z,14.40
2022-11-30T22:15:38.805Z,15.15
2022-11-30T22:18:11.716Z,15.50
2022-11-30T22:20:44.614Z,15.55
2022-11-30T22:23:18.988Z,16.02
2022-11-30T22:25:52.679Z,15.05
2022-11-30T22:28:25.699Z,15.07
2022-11-30T22:31:03.551Z,16.45
2022-11-30T22:33:38.082Z,15.80
2022-11-30T22:36:14.917Z,14.63
2022-11-30T22:38:54.462Z,16.08
2022-11-30T22:41:28.718Z,14.67
2022-11-30T22:44:02.618Z,15.75
2022-11-30T22:46:37.802Z,15.82
2022-11-30T22:49:19.954Z,15.43
2022-11-30T22:51:53.874Z,14.32
2022-11-30T22:54:28.312Z,14.55
2022-11-30T22:57:01.173Z,15.82
2022-11-30T22:59:34.023Z,15.20
2022-11-30T23:02:07.923Z,14.55
2022-11-30T23:04:43.721Z,14.98
2022-11-30T23:07:16.590Z,14.07
2022-11-30T23:09:51.074Z,13.50
2022-11-30T23:12:50.955Z,14.68
2022-11-30T23:15:17.095Z,14.88
2022-11-30T23:17:49.974Z,14.00
2022-11-30T23:20:22.992Z,15.60
2022-11-30T23:22:55.855Z,16.40
2022-11-30T23:25:30.416Z,14.07
2022-11-30T23:28:03.317Z,15.02
2022-11-30T23:30:36.177Z,16.08
2022-11-30T23:33:10.302Z,15.98
2022-11-30T23:35:44.493Z,16.73
2022-11-30T23:38:17.346Z,14.52
2022-11-30T23:40:51.637Z,15.38
2022-11-30T23:43:24.676Z,14.93
2022-11-30T23:45:57.538Z,14.43
2022-11-30T23:48:30.351Z,15.27
2022-11-30T23:51:03.357Z,16.13
2022-11-30T23:53:36.216Z,15.75
2022-11-30T23:56:14.166Z,14.95
2022-11-30T23:58:47.520Z,14.93
